sensor_id;sensor_type;location;lat;lon;timestamp;pressure;altitude;pressure_sealevel;temperature
12126;BMP180;6126;57.908;16.490;2023-08-06T00:00:22;101151.13;;;12.10
12126;BMP180;6126;57.908;16.490;2023-08-06T00:02:49;101158.16;;;12.09
12126;BMP180;6126;57.908;16.490;2023-08-06T00:05:16;101167.72;;;12.10
12126;BMP180;6126;57.908;16.490;2023-08-06T00:07:50;101173.06;;;12.07
12126;BMP180;6126;57.908;16.490;2023-08-06T00:10:17;101181.06;;;12.04
12126;BMP180;6126;57.908;16.490;2023-08-06T00:12:46;101167.22;;;12.02
12126;BMP180;6126;57.908;16.490;2023-08-06T00:15:12;101158.47;;;12.02
12126;BMP180;6126;57.908;16.490;2023-08-06T00:17:38;101161.22;;;11.99
12126;BMP180;6126;57.908;16.490;2023-08-06T00:20:05;101156.13;;;11.96
12126;BMP180;6126;57.908;16.490;2023-08-06T00:22:37;101159.72;;;11.94
12126;BMP180;6126;57.908;16.490;2023-08-06T00:25:04;101158.06;;;11.91
12126;BMP180;6126;57.908;16.490;2023-08-06T00:27:31;101152.13;;;11.88
12126;BMP180;6126;57.908;16.490;2023-08-06T00:29:58;101158.34;;;11.85
12126;BMP180;6126;57.908;16.490;2023-08-06T00:32:24;101153.22;;;11.82
12126;BMP180;6126;57.908;16.490;2023-08-06T00:34:50;101152.47;;;11.79
12126;BMP180;6126;57.908;16.490;2023-08-06T00:37:17;101148.22;;;11.76
12126;BMP180;6126;57.908;16.490;2023-08-06T00:39:44;101156.16;;;11.75
12126;BMP180;6126;57.908;16.490;2023-08-06T00:42:11;101151.91;;;11.72
12126;BMP180;6126;57.908;16.490;2023-08-06T00:44:38;101150.19;;;11.71
12126;BMP180;6126;57.908;16.490;2023-08-06T00:47:06;101144.09;;;11.71
12126;BMP180;6126;57.908;16.490;2023-08-06T00:49:35;101144.22;;;11.68
12126;BMP180;6126;57.908;16.490;2023-08-06T00:52:04;101144.34;;;11.65
12126;BMP180;6126;57.908;16.490;2023-08-06T00:54:31;101139.19;;;11.64
12126;BMP180;6126;57.908;16.490;2023-08-06T00:57:01;101152.38;;;11.61
12126;BMP180;6126;57.908;16.490;2023-08-06T00:59:28;101138.56;;;11.57
12126;BMP180;6126;57.908;16.490;2023-08-06T01:01:55;101141.31;;;11.54
12126;BMP180;6126;57.908;16.490;2023-08-06T01:04:22;101138.75;;;11.53
12126;BMP180;6126;57.908;16.490;2023-08-06T01:07:02;101140.69;;;11.48
12126;BMP180;6126;57.908;16.490;2023-08-06T01:12:41;101139.13;;;11.44
12126;BMP180;6126;57.908;16.490;2023-08-06T01:15:30;101130.34;;;11.45
12126;BMP180;6126;57.908;16.490;2023-08-06T01:17:58;101132.97;;;11.45
12126;BMP180;6126;57.908;16.490;2023-08-06T01:20:29;101121.66;;;11.44
12126;BMP180;6126;57.908;16.490;2023-08-06T01:22:55;101125.25;;;11.42
12126;BMP180;6126;57.908;16.490;2023-08-06T01:25:33;101115.72;;;11.39
12126;BMP180;6126;57.908;16.490;2023-08-06T01:30:55;101106.47;;;11.31
12126;BMP180;6126;57.908;16.490;2023-08-06T01:33:30;101097.97;;;11.26
12126;BMP180;6126;57.908;16.490;2023-08-06T01:35:58;101104.16;;;11.24
12126;BMP180;6126;57.908;16.490;2023-08-06T01:38:25;101106.78;;;11.24
12126;BMP180;6126;57.908;16.490;2023-08-06T01:40:53;101104.13;;;11.25
12126;BMP180;6126;57.908;16.490;2023-08-06T01:43:19;101111.03;;;11.26
12126;BMP180;6126;57.908;16.490;2023-08-06T01:45:45;101106.59;;;11.28
12126;BMP180;6126;57.908;16.490;2023-08-06T01:48:11;101095.28;;;11.28
12126;BMP180;6126;57.908;16.490;2023-08-06T01:50:37;101086.66;;;11.26
12126;BMP180;6126;57.908;16.490;2023-08-06T01:53:02;101094.63;;;11.23
12126;BMP180;6126;57.908;16.490;2023-08-06T01:55:30;101098.22;;;11.20
12126;BMP180;6126;57.908;16.490;2023-08-06T01:57:56;101094.78;;;11.18
12126;BMP180;6126;57.908;16.490;2023-08-06T02:00:22;101092.31;;;11.15
12126;BMP180;6126;57.908;16.490;2023-08-06T02:02:47;101086.28;;;11.13
12126;BMP180;6126;57.908;16.490;2023-08-06T02:05:13;101099.34;;;11.13
12126;BMP180;6126;57.908;16.490;2023-08-06T02:07:39;101096.75;;;11.13
12126;BMP180;6126;57.908;16.490;2023-08-06T02:10:06;101092.47;;;11.11
12126;BMP180;6126;57.908;16.490;2023-08-06T02:12:32;101084.84;;;11.07
12126;BMP180;6126;57.908;16.490;2023-08-06T02:14:58;101100.63;;;11.04
12126;BMP180;6126;57.908;16.490;2023-08-06T02:17:23;101106.81;;;11.01
12126;BMP180;6126;57.908;16.490;2023-08-06T02:19:49;101106.09;;;10.98
12126;BMP180;6126;57.908;16.490;2023-08-06T02:22:15;101111.44;;;10.95
12126;BMP180;6126;57.908;16.490;2023-08-06T02:24:41;101118.56;;;10.91
12126;BMP180;6126;57.908;16.490;2023-08-06T02:27:07;101140.22;;;10.95
12126;BMP180;6126;57.908;16.490;2023-08-06T02:29:33;101138.44;;;10.95
12126;BMP180;6126;57.908;16.490;2023-08-06T02:31:58;101120.97;;;10.96
12126;BMP180;6126;57.908;16.490;2023-08-06T02:34:27;101114.06;;;10.95
12126;BMP180;6126;57.908;16.490;2023-08-06T02:36:52;101117.59;;;10.94
12126;BMP180;6126;57.908;16.490;2023-08-06T02:39:19;101116.84;;;10.90
12126;BMP180;6126;57.908;16.490;2023-08-06T02:41:45;101133.47;;;10.89
12126;BMP180;6126;57.908;16.490;2023-08-06T02:44:10;101125.66;;;10.88
12126;BMP180;6126;57.908;16.490;2023-08-06T02:46:36;101121.34;;;10.87
12126;BMP180;6126;57.908;16.490;2023-08-06T02:49:02;101129.19;;;10.87
12126;BMP180;6126;57.908;16.490;2023-08-06T02:51:28;101117.81;;;10.88
12126;BMP180;6126;57.908;16.490;2023-08-06T02:53:54;101113.50;;;10.87
12126;BMP180;6126;57.908;16.490;2023-08-06T02:56:20;101112.66;;;10.86
12126;BMP180;6126;57.908;16.490;2023-08-06T02:58:46;101121.34;;;10.87
12126;BMP180;6126;57.908;16.490;2023-08-06T03:01:12;101132.72;;;10.86
12126;BMP180;6126;57.908;16.490;2023-08-06T03:03:39;101131.84;;;10.85
12126;BMP180;6126;57.908;16.490;2023-08-06T03:06:05;101126.53;;;10.88
12126;BMP180;6126;57.908;16.490;2023-08-06T03:08:31;101126.53;;;10.88
12126;BMP180;6126;57.908;16.490;2023-08-06T03:10:57;101123.84;;;10.90
12126;BMP180;6126;57.908;16.490;2023-08-06T03:13:23;101118.63;;;10.90
12126;BMP180;6126;57.908;16.490;2023-08-06T03:15:57;101122.03;;;10.92
12126;BMP180;6126;57.908;16.490;2023-08-06T03:18:23;101125.44;;;10.94
12126;BMP180;6126;57.908;16.490;2023-08-06T03:20:49;101119.16;;;10.98
12126;BMP180;6126;57.908;16.490;2023-08-06T03:23:15;101114.78;;;10.98
12126;BMP180;6126;57.908;16.490;2023-08-06T03:25:41;101111.16;;;11.02
12126;BMP180;6126;57.908;16.490;2023-08-06T03:28:07;101104.88;;;11.06
12126;BMP180;6126;57.908;16.490;2023-08-06T03:30:33;101103.78;;;11.11
12126;BMP180;6126;57.908;16.490;2023-08-06T03:32:59;101090.50;;;11.17
12126;BMP180;6126;57.908;16.490;2023-08-06T03:35:25;101090.22;;;11.23
12126;BMP180;6126;57.908;16.490;2023-08-06T03:37:50;101085.69;;;11.28
12126;BMP180;6126;57.908;16.490;2023-08-06T03:40:16;101085.38;;;11.36
12126;BMP180;6126;57.908;16.490;2023-08-06T03:42:42;101080.75;;;11.42
12126;BMP180;6126;57.908;16.490;2023-08-06T03:45:08;101079.00;;;11.42
12126;BMP180;6126;57.908;16.490;2023-08-06T03:47:35;101082.34;;;11.46
12126;BMP180;6126;57.908;16.490;2023-08-06T03:50:01;101081.28;;;11.50
12126;BMP180;6126;57.908;16.490;2023-08-06T03:52:26;101081.13;;;11.54
12126;BMP180;6126;57.908;16.490;2023-08-06T03:54:52;101092.31;;;11.58
12126;BMP180;6126;57.908;16.490;2023-08-06T03:57:18;101094.78;;;11.61
12126;BMP180;6126;57.908;16.490;2023-08-06T03:59:44;101103.38;;;11.64
12126;BMP180;6126;57.908;16.490;2023-08-06T04:02:10;101099.78;;;11.67
12126;BMP180;6126;57.908;16.490;2023-08-06T04:04:36;101096.19;;;11.69
12126;BMP180;6126;57.908;16.490;2023-08-06T04:07:02;101096.91;;;11.72
12126;BMP180;6126;57.908;16.490;2023-08-06T04:09:29;101090.63;;;11.76
12126;BMP180;6126;57.908;16.490;2023-08-06T04:11:55;101085.16;;;11.82
12126;BMP180;6126;57.908;16.490;2023-08-06T04:14:21;101090.16;;;11.87
12126;BMP180;6126;57.908;16.490;2023-08-06T04:16:47;101082.91;;;11.93
12126;BMP180;6126;57.908;16.490;2023-08-06T04:19:13;101079.13;;;12.00
12126;BMP180;6126;57.908;16.490;2023-08-06T04:21:39;101070.16;;;12.05
12126;BMP180;6126;57.908;16.490;2023-08-06T04:24:05;101061.22;;;12.09
12126;BMP180;6126;57.908;16.490;2023-08-06T04:26:30;101059.19;;;12.16
12126;BMP180;6126;57.908;16.490;2023-08-06T04:28:56;101064.06;;;12.23
12126;BMP180;6126;57.908;16.490;2023-08-06T04:31:22;101060.28;;;12.30
12126;BMP180;6126;57.908;16.490;2023-08-06T04:33:49;101060.91;;;12.35
12126;BMP180;6126;57.908;16.490;2023-08-06T04:36:15;101060.63;;;12.41
12126;BMP180;6126;57.908;16.490;2023-08-06T04:38:40;101067.47;;;12.45
12126;BMP180;6126;57.908;16.490;2023-08-06T04:41:11;101067.16;;;12.51
12126;BMP180;6126;57.908;16.490;2023-08-06T04:43:37;101069.44;;;12.58
12126;BMP180;6126;57.908;16.490;2023-08-06T04:46:03;101065.75;;;12.62
12126;BMP180;6126;57.908;16.490;2023-08-06T04:48:28;101073.28;;;12.69
12126;BMP180;6126;57.908;16.490;2023-08-06T04:50:54;101072.13;;;12.76
12126;BMP180;6126;57.908;16.490;2023-08-06T04:53:20;101078.78;;;12.83
12126;BMP180;6126;57.908;16.490;2023-08-06T04:55:47;101067.91;;;12.91
12126;BMP180;6126;57.908;16.490;2023-08-06T04:58:13;101071.16;;;12.95
12126;BMP180;6126;57.908;16.490;2023-08-06T05:00:39;101056.06;;;13.00
12126;BMP180;6126;57.908;16.490;2023-08-06T05:03:06;101067.13;;;13.07
12126;BMP180;6126;57.908;16.490;2023-08-06T05:05:32;101053.72;;;13.13
12126;BMP180;6126;57.908;16.490;2023-08-06T05:07:58;101063.75;;;13.22
12126;BMP180;6126;57.908;16.490;2023-08-06T05:10:28;101054.66;;;13.28
12126;BMP180;6126;57.908;16.490;2023-08-06T05:12:54;101051.66;;;13.36
12126;BMP180;6126;57.908;16.490;2023-08-06T05:15:20;101040.84;;;13.42
12126;BMP180;6126;57.908;16.490;2023-08-06T05:17:46;101041.31;;;13.50
12126;BMP180;6126;57.908;16.490;2023-08-06T05:20:12;101046.22;;;13.57
12126;BMP180;6126;57.908;16.490;2023-08-06T05:22:38;101041.47;;;13.63
12126;BMP180;6126;57.908;16.490;2023-08-06T05:25:04;101041.09;;;13.71
12126;BMP180;6126;57.908;16.490;2023-08-06T05:27:30;101044.13;;;13.80
12126;BMP180;6126;57.908;16.490;2023-08-06T05:29:56;101027.88;;;13.89
12126;BMP180;6126;57.908;16.490;2023-08-06T05:32:22;101025.72;;;13.97
12126;BMP180;6126;57.908;16.490;2023-08-06T05:34:48;101018.47;;;14.02
12126;BMP180;6126;57.908;16.490;2023-08-06T05:37:14;101012.91;;;14.08
12126;BMP180;6126;57.908;16.490;2023-08-06T05:39:40;101015.97;;;14.16
12126;BMP180;6126;57.908;16.490;2023-08-06T05:42:06;101013.78;;;14.23
12126;BMP180;6126;57.908;16.490;2023-08-06T05:44:32;101011.59;;;14.31
12126;BMP180;6126;57.908;16.490;2023-08-06T05:46:58;101010.31;;;14.38
12126;BMP180;6126;57.908;16.490;2023-08-06T05:49:24;100996.94;;;14.43
12126;BMP180;6126;57.908;16.490;2023-08-06T05:51:50;100994.06;;;14.47
12126;BMP180;6126;57.908;16.490;2023-08-06T05:54:19;100994.50;;;14.55
12126;BMP180;6126;57.908;16.490;2023-08-06T05:56:44;100987.09;;;14.61
12126;BMP180;6126;57.908;16.490;2023-08-06T05:59:10;100992.88;;;14.68
12126;BMP180;6126;57.908;16.490;2023-08-06T06:01:36;100984.47;;;14.77
12126;BMP180;6126;57.908;16.490;2023-08-06T06:04:02;100984.13;;;14.82
12126;BMP180;6126;57.908;16.490;2023-08-06T06:06:28;100976.81;;;14.87
12126;BMP180;6126;57.908;16.490;2023-08-06T06:08:54;100973.84;;;14.93
12126;BMP180;6126;57.908;16.490;2023-08-06T06:11:20;100969.09;;;15.00
12126;BMP180;6126;57.908;16.490;2023-08-06T06:13:51;100968.66;;;15.07
12126;BMP180;6126;57.908;16.490;2023-08-06T06:16:17;100974.44;;;15.13
12126;BMP180;6126;57.908;16.490;2023-08-06T06:18:43;100966.22;;;15.19
12126;BMP180;6126;57.908;16.490;2023-08-06T06:21:10;100966.50;;;15.29
12126;BMP180;6126;57.908;16.490;2023-08-06T06:23:36;100967.09;;;15.34
12126;BMP180;6126;57.908;16.490;2023-08-06T06:26:02;100970.13;;;15.42
12126;BMP180;6126;57.908;16.490;2023-08-06T06:28:28;100966.19;;;15.48
12126;BMP180;6126;57.908;16.490;2023-08-06T06:31:00;100947.59;;;15.51
12126;BMP180;6126;57.908;16.490;2023-08-06T06:33:27;100956.91;;;15.57
12126;BMP180;6126;57.908;16.490;2023-08-06T06:35:53;100951.38;;;15.61
12126;BMP180;6126;57.908;16.490;2023-08-06T06:38:19;100951.94;;;15.66
12126;BMP180;6126;57.908;16.490;2023-08-06T06:40:54;100944.69;;;15.70
12126;BMP180;6126;57.908;16.490;2023-08-06T06:43:20;100942.72;;;15.73
12126;BMP180;6126;57.908;16.490;2023-08-06T06:45:46;100933.69;;;15.77
12126;BMP180;6126;57.908;16.490;2023-08-06T06:48:12;100940.38;;;15.82
12126;BMP180;6126;57.908;16.490;2023-08-06T06:50:37;100934.91;;;15.85
12126;BMP180;6126;57.908;16.490;2023-08-06T06:53:05;100940.00;;;15.88
12126;BMP180;6126;57.908;16.490;2023-08-06T06:55:31;100938.00;;;15.92
12126;BMP180;6126;57.908;16.490;2023-08-06T06:57:57;100930.03;;;15.93
12126;BMP180;6126;57.908;16.490;2023-08-06T07:00:23;100919.09;;;15.99
12126;BMP180;6126;57.908;16.490;2023-08-06T07:02:49;100925.78;;;16.04
12126;BMP180;6126;57.908;16.490;2023-08-06T07:05:15;100927.38;;;16.07
12126;BMP180;6126;57.908;16.490;2023-08-06T07:07:41;100925.41;;;16.10
12126;BMP180;6126;57.908;16.490;2023-08-06T07:10:07;100926.13;;;16.12
12126;BMP180;6126;57.908;16.490;2023-08-06T07:12:33;100925.41;;;16.10
12126;BMP180;6126;57.908;16.490;2023-08-06T07:14:59;100928.06;;;16.10
12126;BMP180;6126;57.908;16.490;2023-08-06T07:17:25;100924.41;;;16.13
12126;BMP180;6126;57.908;16.490;2023-08-06T07:19:51;100932.22;;;16.14
12126;BMP180;6126;57.908;16.490;2023-08-06T07:22:16;100926.75;;;16.17
12126;BMP180;6126;57.908;16.490;2023-08-06T07:24:42;100938.03;;;16.19
12126;BMP180;6126;57.908;16.490;2023-08-06T07:27:08;100940.50;;;16.22
12126;BMP180;6126;57.908;16.490;2023-08-06T07:29:34;100926.25;;;16.25
12126;BMP180;6126;57.908;16.490;2023-08-06T07:32:00;100928.81;;;16.26
12126;BMP180;6126;57.908;16.490;2023-08-06T07:34:26;100919.88;;;16.29
12126;BMP180;6126;57.908;16.490;2023-08-06T07:36:52;100931.91;;;16.33
12126;BMP180;6126;57.908;16.490;2023-08-06T07:39:18;100934.25;;;16.37
12126;BMP180;6126;57.908;16.490;2023-08-06T07:41:44;100933.22;;;16.39
12126;BMP180;6126;57.908;16.490;2023-08-06T07:44:11;100932.91;;;16.44
12126;BMP180;6126;57.908;16.490;2023-08-06T07:46:37;100932.75;;;16.47
12126;BMP180;6126;57.908;16.490;2023-08-06T07:49:04;100937.81;;;16.50
12126;BMP180;6126;57.908;16.490;2023-08-06T07:51:30;100937.63;;;16.53
12126;BMP180;6126;57.908;16.490;2023-08-06T07:53:56;100947.00;;;16.57
12126;BMP180;6126;57.908;16.490;2023-08-06T07:56:22;100931.09;;;16.58
12126;BMP180;6126;57.908;16.490;2023-08-06T07:58:48;100932.91;;;16.58
12126;BMP180;6126;57.908;16.490;2023-08-06T08:01:13;100941.75;;;16.57
12126;BMP180;6126;57.908;16.490;2023-08-06T08:03:39;100928.47;;;16.58
12126;BMP180;6126;57.908;16.490;2023-08-06T08:06:05;100924.78;;;16.61
12126;BMP180;6126;57.908;16.490;2023-08-06T08:08:31;100922.03;;;16.62
12126;BMP180;6126;57.908;16.490;2023-08-06T08:10:57;100915.72;;;16.65
12126;BMP180;6126;57.908;16.490;2023-08-06T08:13:24;100911.94;;;16.68
12126;BMP180;6126;57.908;16.490;2023-08-06T08:15:56;100908.13;;;16.72
12126;BMP180;6126;57.908;16.490;2023-08-06T08:18:22;100903.63;;;16.74
12126;BMP180;6126;57.908;16.490;2023-08-06T08:20:48;100897.28;;;16.77
12126;BMP180;6126;57.908;16.490;2023-08-06T08:23:14;100884.75;;;16.80
12126;BMP180;6126;57.908;16.490;2023-08-06T08:25:40;100881.03;;;16.83
12126;BMP180;6126;57.908;16.490;2023-08-06T08:28:06;100884.25;;;16.88
12126;BMP180;6126;57.908;16.490;2023-08-06T08:30:32;100880.75;;;16.87
12126;BMP180;6126;57.908;16.490;2023-08-06T08:32:58;100876.44;;;16.86
12126;BMP180;6126;57.908;16.490;2023-08-06T08:35:24;100866.09;;;16.83
12126;BMP180;6126;57.908;16.490;2023-08-06T08:37:50;100843.25;;;16.82
12126;BMP180;6126;57.908;16.490;2023-08-06T08:40:17;100844.00;;;16.84
12126;BMP180;6126;57.908;16.490;2023-08-06T08:42:43;100836.94;;;16.85
12126;BMP180;6126;57.908;16.490;2023-08-06T08:45:13;100829.84;;;16.85
12126;BMP180;6126;57.908;16.490;2023-08-06T08:47:41;100820.25;;;16.84
12126;BMP180;6126;57.908;16.490;2023-08-06T08:50:09;100807.25;;;16.81
12126;BMP180;6126;57.908;16.490;2023-08-06T08:52:39;100802.06;;;16.80
12126;BMP180;6126;57.908;16.490;2023-08-06T08:55:07;100796.78;;;16.80
12126;BMP180;6126;57.908;16.490;2023-08-06T08:57:33;100798.50;;;16.81
12126;BMP180;6126;57.908;16.490;2023-08-06T08:59:59;100786.03;;;16.83
12126;BMP180;6126;57.908;16.490;2023-08-06T09:02:28;100777.06;;;16.85
12126;BMP180;6126;57.908;16.490;2023-08-06T09:04:58;100777.06;;;16.85
12126;BMP180;6126;57.908;16.490;2023-08-06T09:07:27;100769.16;;;16.85
12126;BMP180;6126;57.908;16.490;2023-08-06T09:09:55;100760.28;;;16.86
12126;BMP180;6126;57.908;16.490;2023-08-06T09:12:22;100751.63;;;16.84
12126;BMP180;6126;57.908;16.490;2023-08-06T09:14:48;100753.31;;;16.85
12126;BMP180;6126;57.908;16.490;2023-08-06T09:17:14;100745.22;;;16.88
12126;BMP180;6126;57.908;16.490;2023-08-06T09:19:43;100745.00;;;16.91
12126;BMP180;6126;57.908;16.490;2023-08-06T09:22:13;100751.00;;;16.93
12126;BMP180;6126;57.908;16.490;2023-08-06T09:24:43;100749.94;;;16.96
12126;BMP180;6126;57.908;16.490;2023-08-06T09:27:13;100763.03;;;16.97
12126;BMP180;6126;57.908;16.490;2023-08-06T09:29:46;100758.59;;;16.97
12126;BMP180;6126;57.908;16.490;2023-08-06T09:32:13;100764.72;;;16.98
12126;BMP180;6126;57.908;16.490;2023-08-06T09:34:43;100781.41;;;16.98
12126;BMP180;6126;57.908;16.490;2023-08-06T09:37:10;100785.84;;;16.98
12126;BMP180;6126;57.908;16.490;2023-08-06T09:39:38;100785.31;;;16.93
12126;BMP180;6126;57.908;16.490;2023-08-06T09:42:04;100793.44;;;16.90
12126;BMP180;6126;57.908;16.490;2023-08-06T09:44:33;100792.72;;;16.88
12126;BMP180;6126;57.908;16.490;2023-08-06T09:47:02;100798.94;;;16.87
12126;BMP180;6126;57.908;16.490;2023-08-06T09:51:58;100793.94;;;16.83
12126;BMP180;6126;57.908;16.490;2023-08-06T09:54:26;100799.22;;;16.83
12126;BMP180;6126;57.908;16.490;2023-08-06T09:56:55;100791.31;;;16.83
12126;BMP180;6126;57.908;16.490;2023-08-06T09:59:23;100789.72;;;16.80
12126;BMP180;6126;57.908;16.490;2023-08-06T10:01:49;100793.31;;;16.79
12126;BMP180;6126;57.908;16.490;2023-08-06T10:04:15;100793.53;;;16.76
12126;BMP180;6126;57.908;16.490;2023-08-06T10:06:43;100792.69;;;16.76
12126;BMP180;6126;57.908;16.490;2023-08-06T10:09:11;100781.09;;;16.78
12126;BMP180;6126;57.908;16.490;2023-08-06T10:11:39;100779.50;;;16.76
12126;BMP180;6126;57.908;16.490;2023-08-06T10:14:23;100764.06;;;16.70
12126;BMP180;6126;57.908;16.490;2023-08-06T10:16:51;100760.03;;;16.65
12126;BMP180;6126;57.908;16.490;2023-08-06T10:19:18;100752.44;;;16.60
12126;BMP180;6126;57.908;16.490;2023-08-06T10:22:18;100752.31;;;16.62
12126;BMP180;6126;57.908;16.490;2023-08-06T10:24:53;100754.75;;;16.65
12126;BMP180;6126;57.908;16.490;2023-08-06T10:30:29;100738.91;;;16.65
12126;BMP180;6126;57.908;16.490;2023-08-06T10:33:01;100741.78;;;16.62
12126;BMP180;6126;57.908;16.490;2023-08-06T10:35:30;100736.91;;;16.56
12126;BMP180;6126;57.908;16.490;2023-08-06T10:38:20;100730.88;;;16.54
12126;BMP180;6126;57.908;16.490;2023-08-06T10:43:34;100722.97;;;16.54
12126;BMP180;6126;57.908;16.490;2023-08-06T10:46:10;100722.97;;;16.54
12126;BMP180;6126;57.908;16.490;2023-08-06T10:48:39;100718.94;;;16.48
12126;BMP180;6126;57.908;16.490;2023-08-06T10:51:12;100721.88;;;16.44
12126;BMP180;6126;57.908;16.490;2023-08-06T10:53:43;100730.00;;;16.41
12126;BMP180;6126;57.908;16.490;2023-08-06T10:56:17;100732.78;;;16.39
12126;BMP180;6126;57.908;16.490;2023-08-06T10:58:45;100731.06;;;16.38
12126;BMP180;6126;57.908;16.490;2023-08-06T11:01:12;100723.25;;;16.37
12126;BMP180;6126;57.908;16.490;2023-08-06T11:03:39;100723.34;;;16.35
12126;BMP180;6126;57.908;16.490;2023-08-06T11:06:07;100721.75;;;16.33
12126;BMP180;6126;57.908;16.490;2023-08-06T11:08:40;100727.88;;;16.34
12126;BMP180;6126;57.908;16.490;2023-08-06T11:11:14;100718.56;;;16.28
12126;BMP180;6126;57.908;16.490;2023-08-06T11:13:45;100723.13;;;16.26
12126;BMP180;6126;57.908;16.490;2023-08-06T11:16:17;100716.28;;;16.24
12126;BMP180;6126;57.908;16.490;2023-08-06T11:18:44;100708.84;;;16.16
12126;BMP180;6126;57.908;16.490;2023-08-06T11:21:11;100702.25;;;16.09
12126;BMP180;6126;57.908;16.490;2023-08-06T11:23:41;100700.56;;;16.08
12126;BMP180;6126;57.908;16.490;2023-08-06T11:26:08;100701.63;;;16.06
12126;BMP180;6126;57.908;16.490;2023-08-06T11:28:34;100689.28;;;16.06
12126;BMP180;6126;57.908;16.490;2023-08-06T11:31:00;100681.56;;;16.03
12126;BMP180;6126;57.908;16.490;2023-08-06T11:33:29;100684.28;;;16.02
12126;BMP180;6126;57.908;16.490;2023-08-06T11:35:57;100674.78;;;16.00
12126;BMP180;6126;57.908;16.490;2023-08-06T11:38:28;100675.00;;;15.97
12126;BMP180;6126;57.908;16.490;2023-08-06T11:40:54;100666.38;;;15.95
12126;BMP180;6126;57.908;16.490;2023-08-06T11:43:21;100664.88;;;15.91
12126;BMP180;6126;57.908;16.490;2023-08-06T11:45:51;100653.69;;;15.87
12126;BMP180;6126;57.908;16.490;2023-08-06T11:48:19;100647.56;;;15.87
12126;BMP180;6126;57.908;16.490;2023-08-06T11:50:45;100656.53;;;15.84
12126;BMP180;6126;57.908;16.490;2023-08-06T11:53:15;100646.84;;;15.85
12126;BMP180;6126;57.908;16.490;2023-08-06T11:55:41;100651.16;;;15.86
12126;BMP180;6126;57.908;16.490;2023-08-06T11:58:10;100631.09;;;15.83
12126;BMP180;6126;57.908;16.490;2023-08-06T12:00:37;100626.78;;;15.82
12126;BMP180;6126;57.908;16.490;2023-08-06T12:03:05;100622.44;;;15.81
12126;BMP180;6126;57.908;16.490;2023-08-06T12:05:32;100621.63;;;15.81
12126;BMP180;6126;57.908;16.490;2023-08-06T12:08:01;100609.19;;;15.83
12126;BMP180;6126;57.908;16.490;2023-08-06T12:10:31;100603.91;;;15.83
12126;BMP180;6126;57.908;16.490;2023-08-06T12:12:57;100618.22;;;15.79
12126;BMP180;6126;57.908;16.490;2023-08-06T12:15:24;100606.00;;;15.78
12126;BMP180;6126;57.908;16.490;2023-08-06T12:17:50;100599.91;;;15.77
12126;BMP180;6126;57.908;16.490;2023-08-06T12:20:16;100600.94;;;15.75
12126;BMP180;6126;57.908;16.490;2023-08-06T12:22:42;100600.31;;;15.72
12126;BMP180;6126;57.908;16.490;2023-08-06T12:25:10;100587.22;;;15.70
12126;BMP180;6126;57.908;16.490;2023-08-06T12:27:42;100581.97;;;15.70
12126;BMP180;6126;57.908;16.490;2023-08-06T12:30:10;100576.59;;;15.72
12126;BMP180;6126;57.908;16.490;2023-08-06T12:32:37;100566.91;;;15.72
12126;BMP180;6126;57.908;16.490;2023-08-06T12:35:04;100562.56;;;15.71
12126;BMP180;6126;57.908;16.490;2023-08-06T12:37:30;100555.81;;;15.67
12126;BMP180;6126;57.908;16.490;2023-08-06T12:39:56;100549.72;;;15.67
12126;BMP180;6126;57.908;16.490;2023-08-06T12:42:22;100536.63;;;15.65
12126;BMP180;6126;57.908;16.490;2023-08-06T12:44:49;100527.13;;;15.63
12126;BMP180;6126;57.908;16.490;2023-08-06T12:47:19;100533.66;;;15.57
12126;BMP180;6126;57.908;16.490;2023-08-06T12:49:45;100523.25;;;15.56
12126;BMP180;6126;57.908;16.490;2023-08-06T12:52:11;100524.91;;;15.57
12126;BMP180;6126;57.908;16.490;2023-08-06T12:54:40;100516.19;;;15.56
12126;BMP180;6126;57.908;16.490;2023-08-06T12:57:06;100524.38;;;15.52
12126;BMP180;6126;57.908;16.490;2023-08-06T12:59:33;100525.41;;;15.49
12126;BMP180;6126;57.908;16.490;2023-08-06T13:02:00;100515.09;;;15.46
12126;BMP180;6126;57.908;16.490;2023-08-06T13:04:26;100499.72;;;15.41
12126;BMP180;6126;57.908;16.490;2023-08-06T13:06:51;100485.78;;;15.39
12126;BMP180;6126;57.908;16.490;2023-08-06T13:09:17;100508.66;;;15.38
12126;BMP180;6126;57.908;16.490;2023-08-06T13:11:43;100523.63;;;15.38
12126;BMP180;6126;57.908;16.490;2023-08-06T13:14:14;100519.19;;;15.38
12126;BMP180;6126;57.908;16.490;2023-08-06T13:16:41;100498.31;;;15.35
12126;BMP180;6126;57.908;16.490;2023-08-06T13:19:09;100497.56;;;15.33
12126;BMP180;6126;57.908;16.490;2023-08-06T13:24:08;100493.16;;;15.34
12126;BMP180;6126;57.908;16.490;2023-08-06T13:26:34;100489.75;;;15.32
12126;BMP180;6126;57.908;16.490;2023-08-06T13:29:01;100475.75;;;15.31
12126;BMP180;6126;57.908;16.490;2023-08-06T13:31:28;100481.03;;;15.31
12126;BMP180;6126;57.908;16.490;2023-08-06T13:33:55;100472.28;;;15.31
12126;BMP180;6126;57.908;16.490;2023-08-06T13:36:22;100466.19;;;15.30
12126;BMP180;6126;57.908;16.490;2023-08-06T13:38:48;100466.19;;;15.30
12126;BMP180;6126;57.908;16.490;2023-08-06T13:41:15;100458.16;;;15.32
12126;BMP180;6126;57.908;16.490;2023-08-06T13:43:42;100452.06;;;15.31
12126;BMP180;6126;57.908;16.490;2023-08-06T13:46:08;100448.69;;;15.29
12126;BMP180;6126;57.908;16.490;2023-08-06T13:48:34;100446.91;;;15.30
12126;BMP180;6126;57.908;16.490;2023-08-06T13:51:00;100438.06;;;15.31
12126;BMP180;6126;57.908;16.490;2023-08-06T13:53:27;100432.03;;;15.29
12126;BMP180;6126;57.908;16.490;2023-08-06T13:55:56;100428.66;;;15.27
12126;BMP180;6126;57.908;16.490;2023-08-06T13:58:23;100416.53;;;15.24
12126;BMP180;6126;57.908;16.490;2023-08-06T14:00:49;100408.56;;;15.26
12126;BMP180;6126;57.908;16.490;2023-08-06T14:03:18;100405.19;;;15.24
12126;BMP180;6126;57.908;16.490;2023-08-06T14:05:44;100400.03;;;15.22
12126;BMP180;6126;57.908;16.490;2023-08-06T14:08:10;100392.03;;;15.24
12126;BMP180;6126;57.908;16.490;2023-08-06T14:10:36;100398.13;;;15.24
12126;BMP180;6126;57.908;16.490;2023-08-06T14:13:02;100380.66;;;15.23